sensor_id;sensor_type;location;lat;lon;timestamp;temperature;humidity
36552;DHT22;22559;54.176;12.102;2022-09-21T00:01:07;12.20;99.90
36552;DHT22;22559;54.176;12.102;2022-09-21T00:03:34;12.20;99.90
36552;DHT22;22559;54.176;12.102;2022-09-21T00:06:16;12.20;99.90
36552;DHT22;22559;54.176;12.102;2022-09-21T00:08:44;12.10;99.90
36552;DHT22;22559;54.176;12.102;2022-09-21T00:11:22;12.20;99.90
36552;DHT22;22559;54.176;12.102;2022-09-21T00:13:54;12.10;99.90
36552;DHT22;22559;54.176;12.102;2022-09-21T00:16:22;12.10;99.90
36552;DHT22;22559;54.176;12.102;2022-09-21T00:18:48;12.00;99.90
36552;DHT22;22559;54.176;12.102;2022-09-21T00:21:14;12.00;99.90
36552;DHT22;22559;54.176;12.102;2022-09-21T00:23:41;12.00;99.90
36552;DHT22;22559;54.176;12.102;2022-09-21T00:28:33;12.00;99.90
36552;DHT22;22559;54.176;12.102;2022-09-21T00:31:07;11.90;99.90
36552;DHT22;22559;54.176;12.102;2022-09-21T00:33:34;11.90;99.90
36552;DHT22;22559;54.176;12.102;2022-09-21T00:36:05;11.90;99.90
36552;DHT22;22559;54.176;12.102;2022-09-21T00:38:32;11.80;99.90
36552;DHT22;22559;54.176;12.102;2022-09-21T00:40:58;11.90;99.90
36552;DHT22;22559;54.176;12.102;2022-09-21T00:43:23;11.90;99.90
36552;DHT22;22559;54.176;12.102;2022-09-21T00:45:50;11.80;99.90
36552;DHT22;22559;54.176;12.102;2022-09-21T00:48:19;11.80;99.90
36552;DHT22;22559;54.176;12.102;2022-09-21T00:50:48;11.90;99.90
36552;DHT22;22559;54.176;12.102;2022-09-21T00:53:16;11.80;99.90
36552;DHT22;22559;54.176;12.102;2022-09-21T00:55:53;11.80;99.90
36552;DHT22;22559;54.176;12.102;2022-09-21T00:58:25;11.80;99.90
36552;DHT22;22559;54.176;12.102;2022-09-21T01:00:53;11.70;99.90
36552;DHT22;22559;54.176;12.102;2022-09-21T01:03:19;11.70;99.90
36552;DHT22;22559;54.176;12.102;2022-09-21T01:05:45;11.70;99.90
36552;DHT22;22559;54.176;12.102;2022-09-21T01:08:12;11.70;99.90
36552;DHT22;22559;54.176;12.102;2022-09-21T01:11:06;11.70;99.90
36552;DHT22;22559;54.176;12.102;2022-09-21T01:16:38;11.60;99.90
36552;DHT22;22559;54.176;12.102;2022-09-21T01:21:33;11.70;99.90
36552;DHT22;22559;54.176;12.102;2022-09-21T01:32:23;11.50;99.90
36552;DHT22;22559;54.176;12.102;2022-09-21T01:34:58;11.60;99.90
36552;DHT22;22559;54.176;12.102;2022-09-21T01:37:38;11.50;99.90
36552;DHT22;22559;54.176;12.102;2022-09-21T01:40:10;11.60;99.90
36552;DHT22;22559;54.176;12.102;2022-09-21T01:42:38;11.60;99.90
36552;DHT22;22559;54.176;12.102;2022-09-21T01:45:06;11.70;99.90
36552;DHT22;22559;54.176;12.102;2022-09-21T01:47:36;11.70;99.90
36552;DHT22;22559;54.176;12.102;2022-09-21T01:50:06;11.70;99.90
36552;DHT22;22559;54.176;12.102;2022-09-21T01:52:39;11.70;99.90
36552;DHT22;22559;54.176;12.102;2022-09-21T01:55:22;11.60;99.90
36552;DHT22;22559;54.176;12.102;2022-09-21T01:58:13;11.70;99.90
36552;DHT22;22559;54.176;12.102;2022-09-21T02:00:43;11.60;99.90
36552;DHT22;22559;54.176;12.102;2022-09-21T02:03:38;11.60;99.90
36552;DHT22;22559;54.176;12.102;2022-09-21T02:06:07;11.50;99.90
36552;DHT22;22559;54.176;12.102;2022-09-21T02:08:35;11.50;99.90
36552;DHT22;22559;54.176;12.102;2022-09-21T02:11:04;11.60;99.90
36552;DHT22;22559;54.176;12.102;2022-09-21T02:13:33;11.60;99.90
36552;DHT22;22559;54.176;12.102;2022-09-21T02:27:12;11.80;99.90
36552;DHT22;22559;54.176;12.102;2022-09-21T02:29:51;11.80;99.90
36552;DHT22;22559;54.176;12.102;2022-09-21T02:32:37;11.80;99.90
36552;DHT22;22559;54.176;12.102;2022-09-21T02:40:33;11.80;99.90
36552;DHT22;22559;54.176;12.102;2022-09-21T02:43:30;11.80;99.90
36552;DHT22;22559;54.176;12.102;2022-09-21T02:46:10;11.80;99.90
36552;DHT22;22559;54.176;12.102;2022-09-21T02:48:48;11.70;99.90
36552;DHT22;22559;54.176;12.102;2022-09-21T02:51:46;11.80;99.90
36552;DHT22;22559;54.176;12.102;2022-09-21T02:54:16;11.70;99.90
36552;DHT22;22559;54.176;12.102;2022-09-21T02:56:45;11.70;99.90
36552;DHT22;22559;54.176;12.102;2022-09-21T02:59:13;11.70;99.90
36552;DHT22;22559;54.176;12.102;2022-09-21T03:01:40;11.70;99.90
36552;DHT22;22559;54.176;12.102;2022-09-21T03:04:06;11.60;99.90
36552;DHT22;22559;54.176;12.102;2022-09-21T03:06:31;11.60;99.90
36552;DHT22;22559;54.176;12.102;2022-09-21T03:08:58;11.70;99.90
36552;DHT22;22559;54.176;12.102;2022-09-21T03:11:24;11.60;99.90
36552;DHT22;22559;54.176;12.102;2022-09-21T03:13:50;11.60;99.90
36552;DHT22;22559;54.176;12.102;2022-09-21T03:16:15;11.60;99.90
36552;DHT22;22559;54.176;12.102;2022-09-21T03:18:41;11.50;99.90
36552;DHT22;22559;54.176;12.102;2022-09-21T03:21:09;11.50;99.90
36552;DHT22;22559;54.176;12.102;2022-09-21T03:23:35;11.50;99.90
36552;DHT22;22559;54.176;12.102;2022-09-21T03:26:01;11.60;99.90
36552;DHT22;22559;54.176;12.102;2022-09-21T03:28:27;11.50;99.90
36552;DHT22;22559;54.176;12.102;2022-09-21T03:30:52;11.50;99.90
36552;DHT22;22559;54.176;12.102;2022-09-21T03:33:19;11.50;99.90
36552;DHT22;22559;54.176;12.102;2022-09-21T03:35:47;11.60;99.90
36552;DHT22;22559;54.176;12.102;2022-09-21T03:38:12;11.60;99.90
36552;DHT22;22559;54.176;12.102;2022-09-21T03:40:38;11.70;99.90
36552;DHT22;22559;54.176;12.102;2022-09-21T03:43:04;11.70;99.90
36552;DHT22;22559;54.176;12.102;2022-09-21T03:45:29;11.70;99.90
36552;DHT22;22559;54.176;12.102;2022-09-21T03:47:56;11.70;99.90
36552;DHT22;22559;54.176;12.102;2022-09-21T03:50:23;11.70;99.90
36552;DHT22;22559;54.176;12.102;2022-09-21T03:52:49;11.70;99.90
36552;DHT22;22559;54.176;12.102;2022-09-21T03:55:15;11.70;99.90
36552;DHT22;22559;54.176;12.102;2022-09-21T03:57:40;11.70;99.90
36552;DHT22;22559;54.176;12.102;2022-09-21T04:00:08;11.70;99.90
36552;DHT22;22559;54.176;12.102;2022-09-21T04:02:37;11.70;99.90
36552;DHT22;22559;54.176;12.102;2022-09-21T04:05:05;11.60;99.90
36552;DHT22;22559;54.176;12.102;2022-09-21T04:07:32;11.60;99.90
36552;DHT22;22559;54.176;12.102;2022-09-21T04:10:05;11.70;99.90
36552;DHT22;22559;54.176;12.102;2022-09-21T04:12:33;11.70;99.90
36552;DHT22;22559;54.176;12.102;2022-09-21T04:14:59;11.80;99.90
36552;DHT22;22559;54.176;12.102;2022-09-21T04:17:26;11.80;99.90
36552;DHT22;22559;54.176;12.102;2022-09-21T04:19:52;11.90;99.90
36552;DHT22;22559;54.176;12.102;2022-09-21T04:22:18;11.90;99.90
36552;DHT22;22559;54.176;12.102;2022-09-21T04:24:44;11.90;99.90
36552;DHT22;22559;54.176;12.102;2022-09-21T04:27:10;11.80;99.90
36552;DHT22;22559;54.176;12.102;2022-09-21T04:29:37;11.80;99.90
36552;DHT22;22559;54.176;12.102;2022-09-21T04:32:03;11.80;99.90
36552;DHT22;22559;54.176;12.102;2022-09-21T04:34:30;11.70;99.90
36552;DHT22;22559;54.176;12.102;2022-09-21T04:36:56;11.70;99.90
36552;DHT22;22559;54.176;12.102;2022-09-21T04:39:23;11.80;99.90
36552;DHT22;22559;54.176;12.102;2022-09-21T04:41:48;11.70;99.90
36552;DHT22;22559;54.176;12.102;2022-09-21T04:44:14;11.70;99.90
36552;DHT22;22559;54.176;12.102;2022-09-21T04:46:40;11.80;99.90
36552;DHT22;22559;54.176;12.102;2022-09-21T04:49:06;11.70;99.90
36552;DHT22;22559;54.176;12.102;2022-09-21T04:51:33;11.70;99.90
36552;DHT22;22559;54.176;12.102;2022-09-21T04:53:59;11.70;99.90
36552;DHT22;22559;54.176;12.102;2022-09-21T04:56:24;11.60;99.90
36552;DHT22;22559;54.176;12.102;2022-09-21T04:58:50;11.70;99.90
36552;DHT22;22559;54.176;12.102;2022-09-21T05:01:16;11.70;99.90
36552;DHT22;22559;54.176;12.102;2022-09-21T05:03:41;11.70;99.90
36552;DHT22;22559;54.176;12.102;2022-09-21T05:06:07;11.70;99.90
36552;DHT22;22559;54.176;12.102;2022-09-21T05:08:34;11.70;99.90
36552;DHT22;22559;54.176;12.102;2022-09-21T05:11:18;11.70;99.90
36552;DHT22;22559;54.176;12.102;2022-09-21T05:13:44;11.80;99.90
36552;DHT22;22559;54.176;12.102;2022-09-21T05:16:10;11.80;99.90
36552;DHT22;22559;54.176;12.102;2022-09-21T05:18:35;11.90;99.90
36552;DHT22;22559;54.176;12.102;2022-09-21T05:21:03;11.90;99.90
36552;DHT22;22559;54.176;12.102;2022-09-21T05:23:29;12.10;99.90
36552;DHT22;22559;54.176;12.102;2022-09-21T05:25:56;12.10;99.90
36552;DHT22;22559;54.176;12.102;2022-09-21T05:28:22;12.20;99.90
36552;DHT22;22559;54.176;12.102;2022-09-21T05:31:03;12.30;99.90
36552;DHT22;22559;54.176;12.102;2022-09-21T05:33:39;12.30;99.90
36552;DHT22;22559;54.176;12.102;2022-09-21T05:38:38;12.50;99.90
36552;DHT22;22559;54.176;12.102;2022-09-21T05:41:04;12.50;99.90
36552;DHT22;22559;54.176;12.102;2022-09-21T05:43:30;12.50;99.90
36552;DHT22;22559;54.176;12.102;2022-09-21T05:46:04;12.50;99.90
36552;DHT22;22559;54.176;12.102;2022-09-21T05:48:39;12.50;99.90
36552;DHT22;22559;54.176;12.102;2022-09-21T05:51:25;12.50;99.90
36552;DHT22;22559;54.176;12.102;2022-09-21T06:00:02;12.60;99.90
36552;DHT22;22559;54.176;12.102;2022-09-21T06:05:01;12.60;99.90
36552;DHT22;22559;54.176;12.102;2022-09-21T06:07:27;12.60;99.90
36552;DHT22;22559;54.176;12.102;2022-09-21T06:09:52;12.60;99.90
36552;DHT22;22559;54.176;12.102;2022-09-21T06:12:18;12.60;99.90
36552;DHT22;22559;54.176;12.102;2022-09-21T06:14:44;12.60;99.90
36552;DHT22;22559;54.176;12.102;2022-09-21T06:17:09;12.60;99.90
36552;DHT22;22559;54.176;12.102;2022-09-21T06:19:35;12.60;99.90
36552;DHT22;22559;54.176;12.102;2022-09-21T06:22:00;12.60;99.90
36552;DHT22;22559;54.176;12.102;2022-09-21T06:24:26;12.60;99.90
36552;DHT22;22559;54.176;12.102;2022-09-21T06:26:51;12.60;99.90
36552;DHT22;22559;54.176;12.102;2022-09-21T06:29:17;12.60;99.90
36552;DHT22;22559;54.176;12.102;2022-09-21T06:31:48;12.70;99.90
36552;DHT22;22559;54.176;12.102;2022-09-21T06:34:15;12.70;99.90
36552;DHT22;22559;54.176;12.102;2022-09-21T06:36:40;12.70;99.90
36552;DHT22;22559;54.176;12.102;2022-09-21T06:39:06;12.70;99.90
36552;DHT22;22559;54.176;12.102;2022-09-21T06:41:31;12.80;99.90
36552;DHT22;22559;54.176;12.102;2022-09-21T06:43:57;12.80;99.90
36552;DHT22;22559;54.176;12.102;2022-09-21T06:46:23;12.90;99.90
36552;DHT22;22559;54.176;12.102;2022-09-21T06:48:48;12.90;99.90
36552;DHT22;22559;54.176;12.102;2022-09-21T06:51:15;13.00;99.90
36552;DHT22;22559;54.176;12.102;2022-09-21T06:53:40;13.10;99.90
36552;DHT22;22559;54.176;12.102;2022-09-21T06:56:07;13.10;99.90
36552;DHT22;22559;54.176;12.102;2022-09-21T06:58:34;13.10;99.90
36552;DHT22;22559;54.176;12.102;2022-09-21T07:01:10;13.20;99.90
36552;DHT22;22559;54.176;12.102;2022-09-21T07:03:37;13.30;99.90
36552;DHT22;22559;54.176;12.102;2022-09-21T07:06:04;13.40;99.90
36552;DHT22;22559;54.176;12.102;2022-09-21T07:08:29;13.40;99.90
36552;DHT22;22559;54.176;12.102;2022-09-21T07:10:59;13.50;99.90
36552;DHT22;22559;54.176;12.102;2022-09-21T07:13:26;13.60;99.90
36552;DHT22;22559;54.176;12.102;2022-09-21T07:15:52;13.60;99.90
36552;DHT22;22559;54.176;12.102;2022-09-21T07:18:17;13.60;99.90
36552;DHT22;22559;54.176;12.102;2022-09-21T07:20:43;13.50;99.90
36552;DHT22;22559;54.176;12.102;2022-09-21T07:23:13;13.60;99.90
36552;DHT22;22559;54.176;12.102;2022-09-21T07:25:40;13.60;99.90
36552;DHT22;22559;54.176;12.102;2022-09-21T07:28:06;13.70;99.90
36552;DHT22;22559;54.176;12.102;2022-09-21T07:30:32;13.70;99.90
36552;DHT22;22559;54.176;12.102;2022-09-21T07:32:58;13.80;99.90
36552;DHT22;22559;54.176;12.102;2022-09-21T07:35:23;13.80;99.90
36552;DHT22;22559;54.176;12.102;2022-09-21T07:37:49;13.90;99.90
36552;DHT22;22559;54.176;12.102;2022-09-21T07:40:15;13.90;99.90
36552;DHT22;22559;54.176;12.102;2022-09-21T07:42:40;13.90;99.90
36552;DHT22;22559;54.176;12.102;2022-09-21T07:45:06;13.90;99.90
36552;DHT22;22559;54.176;12.102;2022-09-21T07:47:32;13.90;99.90
36552;DHT22;22559;54.176;12.102;2022-09-21T07:49:58;14.00;99.90
36552;DHT22;22559;54.176;12.102;2022-09-21T07:52:23;14.00;99.90
36552;DHT22;22559;54.176;12.102;2022-09-21T07:54:49;14.10;99.90
36552;DHT22;22559;54.176;12.102;2022-09-21T07:57:14;14.10;99.90
36552;DHT22;22559;54.176;12.102;2022-09-21T07:59:59;14.20;99.90
36552;DHT22;22559;54.176;12.102;2022-09-21T08:02:24;14.30;99.90
36552;DHT22;22559;54.176;12.102;2022-09-21T08:04:50;14.40;99.90
36552;DHT22;22559;54.176;12.102;2022-09-21T08:07:16;14.50;99.90
36552;DHT22;22559;54.176;12.102;2022-09-21T08:09:41;14.50;99.90
36552;DHT22;22559;54.176;12.102;2022-09-21T08:12:07;14.60;99.90
36552;DHT22;22559;54.176;12.102;2022-09-21T08:14:33;14.60;99.90
36552;DHT22;22559;54.176;12.102;2022-09-21T08:17:00;14.70;99.90
36552;DHT22;22559;54.176;12.102;2022-09-21T08:19:26;14.90;99.90
36552;DHT22;22559;54.176;12.102;2022-09-21T08:21:52;15.20;99.90
36552;DHT22;22559;54.176;12.102;2022-09-21T08:24:18;15.60;99.90
36552;DHT22;22559;54.176;12.102;2022-09-21T08:26:44;16.10;99.90
36552;DHT22;22559;54.176;12.102;2022-09-21T08:29:10;16.50;99.90
36552;DHT22;22559;54.176;12.102;2022-09-21T08:31:39;16.90;99.90
36552;DHT22;22559;54.176;12.102;2022-09-21T08:34:04;17.30;99.90
36552;DHT22;22559;54.176;12.102;2022-09-21T08:36:30;18.20;99.90
36552;DHT22;22559;54.176;12.102;2022-09-21T08:38:56;18.50;99.90
36552;DHT22;22559;54.176;12.102;2022-09-21T08:41:56;18.40;99.90
36552;DHT22;22559;54.176;12.102;2022-09-21T08:44:47;18.10;99.90
36552;DHT22;22559;54.176;12.102;2022-09-21T08:47:18;17.90;99.90
36552;DHT22;22559;54.176;12.102;2022-09-21T08:49:48;18.00;99.90
36552;DHT22;22559;54.176;12.102;2022-09-21T08:52:17;18.00;99.90
36552;DHT22;22559;54.176;12.102;2022-09-21T08:57:17;18.20;99.90
36552;DHT22;22559;54.176;12.102;2022-09-21T08:59:45;18.00;99.90
36552;DHT22;22559;54.176;12.102;2022-09-21T09:10:41;18.50;99.90
36552;DHT22;22559;54.176;12.102;2022-09-21T09:21:34;20.20;99.90
36552;DHT22;22559;54.176;12.102;2022-09-21T09:26:54;20.60;99.90
36552;DHT22;22559;54.176;12.102;2022-09-21T09:29:45;20.70;99.90
36552;DHT22;22559;54.176;12.102;2022-09-21T09:32:14;21.30;99.90
36552;DHT22;22559;54.176;12.102;2022-09-21T09:34:47;21.50;99.90
36552;DHT22;22559;54.176;12.102;2022-09-21T09:37:19;21.20;99.90
36552;DHT22;22559;54.176;12.102;2022-09-21T09:39:53;21.40;99.90
36552;DHT22;22559;54.176;12.102;2022-09-21T09:45:30;21.30;99.90
36552;DHT22;22559;54.176;12.102;2022-09-21T09:50:51;21.90;99.90
36552;DHT22;22559;54.176;12.102;2022-09-21T09:53:20;21.90;99.90
36552;DHT22;22559;54.176;12.102;2022-09-21T09:55:50;21.50;99.90
36552;DHT22;22559;54.176;12.102;2022-09-21T09:58:20;21.40;99.90
36552;DHT22;22559;54.176;12.102;2022-09-21T10:00:54;21.50;99.90
36552;DHT22;22559;54.176;12.102;2022-09-21T10:03:22;21.30;99.90
36552;DHT22;22559;54.176;12.102;2022-09-21T10:05:49;21.30;99.90
36552;DHT22;22559;54.176;12.102;2022-09-21T10:11:03;21.50;99.90
36552;DHT22;22559;54.176;12.102;2022-09-21T10:13:35;21.50;99.90
36552;DHT22;22559;54.176;12.102;2022-09-21T10:21:06;21.80;99.90
36552;DHT22;22559;54.176;12.102;2022-09-21T10:23:33;22.00;99.90
36552;DHT22;22559;54.176;12.102;2022-09-21T10:26:02;22.30;99.90
36552;DHT22;22559;54.176;12.102;2022-09-21T10:28:29;22.50;99.90
36552;DHT22;22559;54.176;12.102;2022-09-21T10:31:18;22.70;99.90
36552;DHT22;22559;54.176;12.102;2022-09-21T10:34:13;22.60;99.90
36552;DHT22;22559;54.176;12.102;2022-09-21T10:36:40;22.50;99.90
36552;DHT22;22559;54.176;12.102;2022-09-21T10:39:21;22.00;99.90
36552;DHT22;22559;54.176;12.102;2022-09-21T10:41:58;22.20;99.90
36552;DHT22;22559;54.176;12.102;2022-09-21T10:44:37;22.20;99.90
36552;DHT22;22559;54.176;12.102;2022-09-21T10:47:19;22.20;99.90
36552;DHT22;22559;54.176;12.102;2022-09-21T10:49:56;22.30;99.90
36552;DHT22;22559;54.176;12.102;2022-09-21T10:52:34;21.60;99.90
36552;DHT22;22559;54.176;12.102;2022-09-21T10:55:00;21.90;99.90
36552;DHT22;22559;54.176;12.102;2022-09-21T10:57:27;22.10;99.90
36552;DHT22;22559;54.176;12.102;2022-09-21T10:59:53;22.20;99.90
36552;DHT22;22559;54.176;12.102;2022-09-21T11:02:27;22.00;99.90
36552;DHT22;22559;54.176;12.102;2022-09-21T11:05:32;21.70;99.90
36552;DHT22;22559;54.176;12.102;2022-09-21T11:10:29;22.30;99.90
36552;DHT22;22559;54.176;12.102;2022-09-21T11:15:43;22.50;99.90
36552;DHT22;22559;54.176;12.102;2022-09-21T11:18:23;22.60;99.90
36552;DHT22;22559;54.176;12.102;2022-09-21T11:21:26;22.40;99.90
36552;DHT22;22559;54.176;12.102;2022-09-21T11:23:54;22.20;99.90
36552;DHT22;22559;54.176;12.102;2022-09-21T11:27:00;22.00;99.90
36552;DHT22;22559;54.176;12.102;2022-09-21T11:32:32;22.30;99.90
36552;DHT22;22559;54.176;12.102;2022-09-21T11:41:02;21.90;99.90
36552;DHT22;22559;54.176;12.102;2022-09-21T11:56:59;21.90;99.90
36552;DHT22;22559;54.176;12.102;2022-09-21T12:13:25;22.50;99.90
36552;DHT22;22559;54.176;12.102;2022-09-21T12:18:53;22.10;99.90
36552;DHT22;22559;54.176;12.102;2022-09-21T12:22:11;21.90;99.90
36552;DHT22;22559;54.176;12.102;2022-09-21T12:24:22;22.30;99.90
36552;DHT22;22559;54.176;12.102;2022-09-21T12:26:55;22.90;99.90
36552;DHT22;22559;54.176;12.102;2022-09-21T12:32:38;22.70;99.90
36552;DHT22;22559;54.176;12.102;2022-09-21T12:40:47;22.00;99.90
36552;DHT22;22559;54.176;12.102;2022-09-21T12:45:58;22.10;99.90
36552;DHT22;22559;54.176;12.102;2022-09-21T12:48:33;22.20;99.90
36552;DHT22;22559;54.176;12.102;2022-09-21T12:53:38;22.00;99.90
36552;DHT22;22559;54.176;12.102;2022-09-21T13:03:51;21.90;99.90
36552;DHT22;22559;54.176;12.102;2022-09-21T13:09:15;21.90;99.90
36552;DHT22;22559;54.176;12.102;2022-09-21T13:14:46;21.90;99.90
36552;DHT22;22559;54.176;12.102;2022-09-21T13:17:21;21.50;99.90
36552;DHT22;22559;54.176;12.102;2022-09-21T13:20:01;21.80;99.90
36552;DHT22;22559;54.176;12.102;2022-09-21T13:22:33;21.30;99.90
36552;DHT22;22559;54.176;12.102;2022-09-21T13:25:06;21.50;99.90
36552;DHT22;22559;54.176;12.102;2022-09-21T13:33:36;21.70;99.90
36552;DHT22;22559;54.176;12.102;2022-09-21T13:51:33;22.10;99.90
36552;DHT22;22559;54.176;12.102;2022-09-21T13:54:00;22.00;99.90
36552;DHT22;22559;54.176;12.102;2022-09-21T13:56:27;21.40;99.90
36552;DHT22;22559;54.176;12.102;2022-09-21T13:58:56;21.30;99.90
36552;DHT22;22559;54.176;12.102;2022-09-21T14:01:24;21.40;99.90
36552;DHT22;22559;54.176;12.102;2022-09-21T14:03:58;21.50;99.90
36552;DHT22;22559;54.176;12.102;2022-09-21T14:06:27;21.60;99.90
36552;DHT22;22559;54.176;12.102;2022-09-21T14:09:02;21.60;99.90
36552;DHT22;22559;54.176;12.102;2022-09-21T14:11:38;21.60;99.90
36552;DHT22;22559;54.176;12.102;2022-09-21T14:14:22;21.50;99.90
36552;DHT22;22559;54.176;12.102;2022-09-21T14:16:53;21.90;99.90
36552;DHT22;22559;54.176;12.102;2022-09-21T14:24:46;21.10;99.90
36552;DHT22;22559;54.176;12.102;2022-09-21T14:27:31;21.10;99.90
36552;DHT22;22559;54.176;12.102;2022-09-21T14:30:01;21.50;99.90
36552;DHT22;22559;54.176;12.102;2022-09-21T14:32:29;21.40;99.90
36552;DHT22;22559;54.176;12.102;2022-09-21T14:35:11;21.80;99.90
36552;DHT22;22559;54.176;12.102;2022-09-21T14:37:45;21.70;99.90
36552;DHT22;22559;54.176;12.102;2022-09-21T14:40:21;21.10;99.90
36552;DHT22;22559;54.176;12.102;2022-09-21T14:42:52;20.90;99.90
36552;DHT22;22559;54.176;12.102;2022-09-21T14:45:23;20.80;99.90
36552;DHT22;22559;54.176;12.102;2022-09-21T14:48:19;20.50;99.90
36552;DHT22;22559;54.176;12.102;2022-09-21T14:51:14;20.60;99.90
36552;DHT22;22559;54.176;12.102;2022-09-21T15:02:23;20.90;99.90
36552;DHT22;22559;54.176;12.102;2022-09-21T15:04:54;21.00;99.90
36552;DHT22;22559;54.176;12.102;2022-09-21T15:11:41;21.40;99.90
36552;DHT22;22559;54.176;12.102;2022-09-21T15:13:49;20.50;99.90
36552;DHT22;22559;54.176;12.102;2022-09-21T15:18:45;20.50;99.90
36552;DHT22;22559;54.176;12.102;2022-09-21T15:21:28;20.60;99.90
36552;DHT22;22559;54.176;12.102;2022-09-21T15:23:55;20.20;99.90
36552;DHT22;22559;54.176;12.102;2022-09-21T15:26:27;20.40;99.90
36552;DHT22;22559;54.176;12.102;2022-09-21T15:28:59;20.50;99.90
36552;DHT22;22559;54.176;12.102;2022-09-21T15:31:31;20.90;99.90
36552;DHT22;22559;54.176;12.102;2022-09-21T15:33:58;20.70;99.90
36552;DHT22;22559;54.176;12.102;2022-09-21T15:36:28;20.30;99.90
36552;DHT22;22559;54.176;12.102;2022-09-21T15:38:55;20.50;99.90
36552;DHT22;22559;54.176;12.102;2022-09-21T15:41:44;20.30;99.90
36552;DHT22;22559;54.176;12.102;2022-09-21T15:44:36;20.30;99.90
36552;DHT22;22559;54.176;12.102;2022-09-21T15:47:06;20.20;99.90
36552;DHT22;22559;54.176;12.102;2022-09-21T15:49:33;20.20;99.90
36552;DHT22;22559;54.176;12.102;2022-09-21T15:54:36;20.00;99.90
36552;DHT22;22559;54.176;12.102;2022-09-21T15:57:22;20.20;99.90
36552;DHT22;22559;54.176;12.102;2022-09-21T15:59:51;20.20;99.90
36552;DHT22;22559;54.176;12.102;2022-09-21T16:02:21;20.10;99.90
36552;DHT22;22559;54.176;12.102;2022-09-21T16:04:48;20.10;99.90
36552;DHT22;22559;54.176;12.102;2022-09-21T16:07:45;19.80;99.90
36552;DHT22;22559;54.176;12.102;2022-09-21T16:13:24;18.60;99.90
36552;DHT22;22559;54.176;12.102;2022-09-21T16:16:11;18.50;99.90
36552;DHT22;22559;54.176;12.102;2022-09-21T16:21:16;17.80;99.90
36552;DHT22;22559;54.176;12.102;2022-09-21T16:23:45;17.60;99.90
36552;DHT22;22559;54.176;12.102;2022-09-21T16:26:26;17.20;99.90
36552;DHT22;22559;54.176;12.102;2022-09-21T16:29:16;17.00;99.90
36552;DHT22;22559;54.176;12.102;2022-09-21T16:31:42;16.80;99.90
36552;DHT22;22559;54.176;12.102;2022-09-21T16:34:43;16.60;99.90
36552;DHT22;22559;54.176;12.102;2022-09-21T16:39:55;16.00;99.90
36552;DHT22;22559;54.176;12.102;2022-09-21T16:42:22;16.00;99.90
36552;DHT22;22559;54.176;12.102;2022-09-21T16:44:48;15.90;99.90
36552;DHT22;22559;54.176;12.102;2022-09-21T16:47:21;15.80;99.90
36552;DHT22;22559;54.176;12.102;2022-09-21T16:49:50;15.60;99.90
36552;DHT22;22559;54.176;12.102;2022-09-21T16:52:20;15.50;99.90
36552;DHT22;22559;54.176;12.102;2022-09-21T16:54:46;15.50;99.90
36552;DHT22;22559;54.176;12.102;2022-09-21T16:57:13;15.40;99.90
36552;DHT22;22559;54.176;12.102;2022-09-21T16:59:39;15.20;99.90
36552;DHT22;22559;54.176;12.102;2022-09-21T17:02:05;15.20;99.90
36552;DHT22;22559;54.176;12.102;2022-09-21T17:04:32;15.10;99.90
36552;DHT22;22559;54.176;12.102;2022-09-21T17:06:58;14.90;99.90
36552;DHT22;22559;54.176;12.102;2022-09-21T17:09:33;14.80;99.90
36552;DHT22;22559;54.176;12.102;2022-09-21T17:12:01;14.70;99.90
36552;DHT22;22559;54.176;12.102;2022-09-21T17:14:31;14.60;99.90
36552;DHT22;22559;54.176;12.102;2022-09-21T17:19:33;14.50;99.90
36552;DHT22;22559;54.176;12.102;2022-09-21T17:22:02;14.40;99.90
36552;DHT22;22559;54.176;12.102;2022-09-21T17:24:27;14.30;99.90
36552;DHT22;22559;54.176;12.102;2022-09-21T17:26:53;14.40;99.90
36552;DHT22;22559;54.176;12.102;2022-09-21T17:29:24;14.30;99.90
36552;DHT22;22559;54.176;12.102;2022-09-21T17:31:53;14.20;99.90
36552;DHT22;22559;54.176;12.102;2022-09-21T17:34:27;14.20;99.90
36552;DHT22;22559;54.176;12.102;2022-09-21T17:36:53;14.10;99.90
36552;DHT22;22559;54.176;12.102;2022-09-21T17:39:21;14.10;99.90
36552;DHT22;22559;54.176;12.102;2022-09-21T17:42:00;14.10;99.90
36552;DHT22;22559;54.176;12.102;2022-09-21T17:47:32;14.00;99.90
36552;DHT22;22559;54.176;12.102;2022-09-21T17:52:27;13.90;99.90
36552;DHT22;22559;54.176;12.102;2022-09-21T17:55:12;13.90;99.90
36552;DHT22;22559;54.176;12.102;2022-09-21T18:01:19;13.90;99.90
36552;DHT22;22559;54.176;12.102;2022-09-21T18:03:46;13.90;99.90
36552;DHT22;22559;54.176;12.102;2022-09-21T18:06:12;13.90;99.90
36552;DHT22;22559;54.176;12.102;2022-09-21T18:08:38;13.80;99.90
36552;DHT22;22559;54.176;12.102;2022-09-21T18:17:18;13.70;99.90
36552;DHT22;22559;54.176;12.102;2022-09-21T18:24:43;13.70;99.90
36552;DHT22;22559;54.176;12.102;2022-09-21T18:27:10;13.60;99.90
36552;DHT22;22559;54.176;12.102;2022-09-21T18:29:36;13.50;99.90
36552;DHT22;22559;54.176;12.102;2022-09-21T18:35:14;13.50;99.90
36552;DHT22;22559;54.176;12.102;2022-09-21T18:45:44;13.30;99.90
36552;DHT22;22559;54.176;12.102;2022-09-21T18:51:13;13.40;99.90
36552;DHT22;22559;54.176;12.102;2022-09-21T18:56:12;13.50;99.90
36552;DHT22;22559;54.176;12.102;2022-09-21T18:58:39;13.50;99.90
36552;DHT22;22559;54.176;12.102;2022-09-21T19:01:06;13.60;99.90
36552;DHT22;22559;54.176;12.102;2022-09-21T19:03:32;13.50;99.90
36552;DHT22;22559;54.176;12.102;2022-09-21T19:11:47;13.60;99.90
36552;DHT22;22559;54.176;12.102;2022-09-21T19:30:48;13.10;99.90
36552;DHT22;22559;54.176;12.102;2022-09-21T19:33:31;13.00;99.90
36552;DHT22;22559;54.176;12.102;2022-09-21T19:35:57;13.10;99.90
36552;DHT22;22559;54.176;12.102;2022-09-21T19:38:29;13.00;99.90
36552;DHT22;22559;54.176;12.102;2022-09-21T19:41:04;13.00;99.90
36552;DHT22;22559;54.176;12.102;2022-09-21T19:43:38;12.90;99.90
36552;DHT22;22559;54.176;12.102;2022-09-21T19:46:52;12.90;99.90
36552;DHT22;22559;54.176;12.102;2022-09-21T19:48:54;12.80;99.90
36552;DHT22;22559;54.176;12.102;2022-09-21T19:51:46;12.60;99.90
36552;DHT22;22559;54.176;12.102;2022-09-21T19:54:21;12.60;99.90
36552;DHT22;22559;54.176;12.102;2022-09-21T19:57:20;12.70;99.90
36552;DHT22;22559;54.176;12.102;2022-09-21T20:00:10;12.80;99.90
36552;DHT22;22559;54.176;12.102;2022-09-21T20:11:03;13.00;99.90
36552;DHT22;22559;54.176;12.102;2022-09-21T20:16:36;12.90;99.90